Wyoming, Michigan
Current Conditions -  °F | °C
As of 8:53 AM on Friday 24 Oct 2014 (Local Time) from KGRR Reporting Station
Overcast Overcast  
Wind Chill: 51°   Ceiling: 2500
Heat Index: 51°   Visibility: 8mi
Dew Point: 44°   Wind: 6mph
Humidity: 77%   Direction: 190°S
Pressure: 30.06"   Gusts: NA
Location:  42.91°N, 85.69°W
Report Text: KGRR 241253Z 19005KT 8SM OVC025 11/07 A3006 RMK AO2 SLP180 T01060067
Loading
Personal Weather Stations






























Interactive Weather Map
Tropical Storm Tracking
New forecast layout! Learn more

10-Day Weather Forecast

Advertisements
Track Severe Weather on mobile